This is the latest recevied weather packets stored in our database for station/object OE-11007. If no packets are shown the sender has not sent any weather packets the latest 10 day(s).
| Time | Temp. | Humidity | Pressure | Rain* | Wind** | Luminosity | Snow |
|---|---|---|---|---|---|---|---|
| 1788140485 | 16.67° C | 92% | 1015 hPa | 0 mm | - | 0 W/m² | - |
| 1788140112 | 16.11° C | 94% | 1015.1 hPa | 0 mm | - | 0 W/m² | - |
| 1788139512 | 16.11° C | 93% | 1015 hPa | 0 mm | - | 0 W/m² | - |
| 1788138684 | 16.67° C | 90% | 1015.1 hPa | 0 mm | - | 0 W/m² | - |
| 1788138312 | 16.11° C | 91% | 1015.2 hPa | 0 mm | - | 0 W/m² | - |
| 1788137712 | 16.11° C | 92% | 1015.3 hPa | 0 mm | - | 0 W/m² | - |
| 1788136884 | 16.11° C | 93% | 1015.3 hPa | 0 mm | - | 0 W/m² | - |
| 1788136512 | 16.11° C | 93% | 1015.4 hPa | 0 mm | - | 0 W/m² | - |
| 1788135912 | 15.56° C | 96% | 1015.5 hPa | 1.02 mm | - | 0 W/m² | - |
| 1788135085 | 16.11° C | 93% | 1015.4 hPa | 1.52 mm | - | 0 W/m² | - |
| 1788134712 | 16.11° C | 93% | 1015.4 hPa | 1.52 mm | - | 0 W/m² | - |
| 1788134112 | 16.67° C | 89% | 1015.4 hPa | 1.52 mm | - | 0 W/m² | - |
| 1788133523 | 16.67° C | 93% | 1015.4 hPa | 1.52 mm | - | 0 W/m² | - |
| 1788132911 | 15.56° C | 94% | 1015.7 hPa | 1.52 mm | - | 0 W/m² | - |
| 1788132311 | 15.56° C | 90% | 1015.8 hPa | 1.52 mm | - | 0 W/m² | - |
| 1788131712 | 16.11° C | 84% | 1016 hPa | 0.51 mm | - | 0 W/m² | - |
| 1788131112 | 17.22° C | 76% | 1015.3 hPa | 0 mm | - | 0 W/m² | - |
| 1788130512 | 17.22° C | 74% | 1015.3 hPa | 0 mm | - | 0 W/m² | - |
| 1788129685 | 16.67° C | 77% | 1015.7 hPa | 0 mm | - | 0 W/m² | - |
| 1788129312 | 16.11° C | 79% | 1015.8 hPa | 0 mm | - | 0 W/m² | - |
| 1788128712 | 16.11° C | 80% | 1016.1 hPa | 0 mm | - | 0 W/m² | - |
| 1788127886 | 16.67° C | 79% | 1015.8 hPa | 0 mm | - | 0 W/m² | - |
| 1788127512 | 17.22° C | 75% | 1015.8 hPa | 0 mm | - | 0 W/m² | - |
| 1788126912 | 17.78° C | 69% | 1015.4 hPa | 0 mm | - | 0 W/m² | - |
| 1788126085 | 17.78° C | 71% | 1015.6 hPa | 0 mm | - | 0 W/m² | - |
* Rain latest hour (hover to see other rain measurements)
** Current wind speed in m/s (hover to see current wind gust speed)